A05 weather

Harrismith Airport
Harrismith, Western Australia, Australia

Public forecast

Using degrees Celsius for public forecast. Weather courtesy of forecast.io.

METAR (pilot weather report)

Closest report is Perth Jandakot Airport, 112.5 nm (208.4 km) WNW. Retrieved 2019/04/20 16:00 UTC (14 minutes ago):

YPJT 201600Z AUTO 00000KT 9999 // NCD 07/06 Q1027 RF00.0/000.0

TAF (pilot weather forecast)

Closest forecast is Perth Jandakot Airport, 112.5 nm (208.4 km) WNW. Retrieved 2019/04/20 12:00 UTC (4 hours ago):

TAF YPJT 201044Z 2012/2106 14007KT CAVOK FM201500 VRB03KT CAVOK FM210000 07007KT CAVOK